createdAt,value
2023-07-25T00:01:09.477Z,73.38
2023-07-25T00:03:36.479Z,73.41
2023-07-25T00:06:07.869Z,73.41
2023-07-25T00:08:34.597Z,73.47
2023-07-25T00:11:01.823Z,73.46
2023-07-25T00:13:29.062Z,73.38
2023-07-25T00:15:56.414Z,73.44
2023-07-25T00:18:23.158Z,73.40
2023-07-25T00:20:49.917Z,73.22
2023-07-25T00:23:17.269Z,73.01
2023-07-25T00:25:43.896Z,73.00
2023-07-25T00:28:10.515Z,72.97
2023-07-25T00:30:37.258Z,73.03
2023-07-25T00:33:03.995Z,73.24
2023-07-25T00:35:30.747Z,73.31
2023-07-25T00:37:57.519Z,73.54
2023-07-25T00:40:24.188Z,73.28
2023-07-25T00:42:56.977Z,73.64
2023-07-25T00:45:25.367Z,73.41
2023-07-25T00:47:53.656Z,73.23
2023-07-25T00:50:20.481Z,73.39
2023-07-25T00:52:48.237Z,72.97
2023-07-25T00:55:14.999Z,73.11
2023-07-25T00:57:42.349Z,73.04
2023-07-25T01:00:09.448Z,72.93
2023-07-25T01:02:36.635Z,73.05
2023-07-25T01:05:03.479Z,72.96
2023-07-25T01:07:31.449Z,73.01
2023-07-25T01:09:58.235Z,72.93
2023-07-25T01:12:25.697Z,72.96
2023-07-25T01:14:52.633Z,72.71
2023-07-25T01:17:22.486Z,72.81
2023-07-25T01:19:50.963Z,72.73
2023-07-25T01:22:19.332Z,72.70
2023-07-25T01:24:48.034Z,72.68
2023-07-25T01:27:16.327Z,72.81
2023-07-25T01:29:43.470Z,73.03
2023-07-25T01:32:10.918Z,72.90
2023-07-25T01:34:38.401Z,72.98
2023-07-25T01:37:07.052Z,72.94
2023-07-25T01:39:33.835Z,73.36
2023-07-25T01:42:00.491Z,73.28
2023-07-25T01:44:27.709Z,73.48
2023-07-25T01:46:56.316Z,73.45
2023-07-25T01:49:23.216Z,73.71
2023-07-25T01:51:50.740Z,73.52
2023-07-25T01:54:20.296Z,73.81
2023-07-25T01:56:50.357Z,73.96
2023-07-25T01:59:18.058Z,73.80
2023-07-25T02:01:44.781Z,73.68
2023-07-25T02:04:11.537Z,73.77
2023-07-25T02:06:39.065Z,73.68
2023-07-25T02:09:05.660Z,74.09
2023-07-25T02:11:33.367Z,73.93
2023-07-25T02:14:00.242Z,73.83
2023-07-25T02:16:26.928Z,74.00
2023-07-25T02:18:53.664Z,74.16
2023-07-25T02:21:21.087Z,74.24
2023-07-25T02:23:47.890Z,74.03
2023-07-25T02:28:46.135Z,74.49
2023-07-25T02:31:12.841Z,74.59
2023-07-25T02:33:42.220Z,74.60
2023-07-25T02:36:09.051Z,74.38
2023-07-25T02:38:35.646Z,74.90
2023-07-25T02:41:02.316Z,74.68
2023-07-25T02:43:29.178Z,74.93
2023-07-25T02:45:55.834Z,74.99
2023-07-25T02:48:22.549Z,75.07
2023-07-25T02:50:49.986Z,75.32
2023-07-25T02:53:16.771Z,75.33
2023-07-25T02:55:43.424Z,75.43
2023-07-25T02:58:10.270Z,75.59
2023-07-25T03:00:36.941Z,75.59
2023-07-25T03:03:03.734Z,75.95
2023-07-25T03:05:31.045Z,76.09
2023-07-25T03:07:58.290Z,76.12
2023-07-25T03:10:25.089Z,76.12
2023-07-25T03:12:53.353Z,76.05
2023-07-25T03:15:21.438Z,75.89
2023-07-25T03:17:48.328Z,75.94
2023-07-25T03:20:15.092Z,75.94
2023-07-25T03:22:42.024Z,76.08
2023-07-25T03:25:09.724Z,76.13
2023-07-25T03:27:37.438Z,76.31
2023-07-25T03:30:05.391Z,76.47
2023-07-25T03:32:32.067Z,76.65
2023-07-25T03:34:59.345Z,76.67
2023-07-25T03:37:26.049Z,76.64
2023-07-25T03:39:53.116Z,76.71
2023-07-25T03:42:19.784Z,76.72
2023-07-25T03:44:47.009Z,76.63
2023-07-25T03:47:13.639Z,76.72
2023-07-25T03:49:40.690Z,76.69
2023-07-25T03:52:08.247Z,76.64
2023-07-25T03:54:34.879Z,76.44
2023-07-25T03:57:03.544Z,76.42
2023-07-25T03:59:30.307Z,76.54
2023-07-25T04:01:57.753Z,76.63
2023-07-25T04:04:24.659Z,76.69
2023-07-25T04:06:51.402Z,76.60
2023-07-25T04:09:18.178Z,76.88
2023-07-25T04:11:44.916Z,76.84
2023-07-25T04:14:11.585Z,76.83
2023-07-25T04:16:38.376Z,76.76
2023-07-25T04:19:05.250Z,76.70
2023-07-25T04:21:32.042Z,76.52
2023-07-25T04:23:58.853Z,76.65
2023-07-25T04:26:25.478Z,76.63
2023-07-25T04:28:52.121Z,76.81
2023-07-25T04:31:18.686Z,76.79
2023-07-25T04:33:45.645Z,76.83
2023-07-25T04:36:12.322Z,76.86
2023-07-25T04:38:42.346Z,77.10
2023-07-25T04:41:09.715Z,76.84
2023-07-25T04:43:36.370Z,76.68
2023-07-25T04:46:03.625Z,76.81
2023-07-25T04:48:30.471Z,77.42
2023-07-25T04:50:57.121Z,77.49
2023-07-25T04:53:24.502Z,78.10
2023-07-25T04:55:51.166Z,77.89
2023-07-25T04:58:17.817Z,77.68
2023-07-25T05:00:45.007Z,77.69
2023-07-25T05:03:11.936Z,77.49
2023-07-25T05:05:38.709Z,77.25
2023-07-25T05:08:05.520Z,77.36
2023-07-25T05:10:32.941Z,77.30
2023-07-25T05:12:59.550Z,77.42
2023-07-25T05:15:26.375Z,77.42
2023-07-25T05:17:53.849Z,77.23
2023-07-25T05:20:20.522Z,77.11
2023-07-25T05:22:47.257Z,76.99
2023-07-25T05:25:13.914Z,76.92
2023-07-25T05:27:40.562Z,76.73
2023-07-25T05:30:07.842Z,76.74
2023-07-25T05:32:37.534Z,76.90
2023-07-25T05:35:04.773Z,76.88
2023-07-25T05:37:38.951Z,76.82
2023-07-25T05:40:07.045Z,77.15
2023-07-25T05:42:34.041Z,77.06
2023-07-25T05:45:01.522Z,77.41
2023-07-25T05:47:29.098Z,77.52
2023-07-25T05:49:56.365Z,77.48
2023-07-25T05:52:23.241Z,77.57
2023-07-25T05:54:50.371Z,77.49
2023-07-25T05:57:17.116Z,77.54
2023-07-25T05:59:45.067Z,77.46
2023-07-25T06:02:12.328Z,77.36
2023-07-25T06:04:39.855Z,77.30
2023-07-25T06:07:07.495Z,77.36
2023-07-25T06:09:34.244Z,77.35
2023-07-25T06:12:00.886Z,77.60
2023-07-25T06:14:27.615Z,77.32
2023-07-25T06:16:54.297Z,77.37
2023-07-25T06:19:21.161Z,77.29
2023-07-25T06:21:48.650Z,77.35
2023-07-25T06:24:15.429Z,77.21
2023-07-25T06:26:42.158Z,77.22
2023-07-25T06:29:08.987Z,76.93
2023-07-25T06:31:36.668Z,77.04
2023-07-25T06:34:03.466Z,76.84
2023-07-25T06:36:30.303Z,76.87
2023-07-25T06:38:56.946Z,76.87
2023-07-25T06:41:23.737Z,76.83
2023-07-25T06:43:51.416Z,76.69
2023-07-25T06:46:18.139Z,76.91
2023-07-25T06:48:44.800Z,76.74
2023-07-25T06:51:12.410Z,76.54
2023-07-25T06:53:42.353Z,76.08
2023-07-25T06:56:09.105Z,75.61
2023-07-25T06:58:35.994Z,74.78
2023-07-25T07:01:02.618Z,74.26
2023-07-25T07:03:29.302Z,73.88
2023-07-25T07:05:57.287Z,73.44
2023-07-25T07:08:24.244Z,73.54
2023-07-25T07:10:55.536Z,73.03
2023-07-25T07:13:23.780Z,72.54
2023-07-25T07:15:50.887Z,72.23
2023-07-25T07:18:17.752Z,71.30
2023-07-25T07:20:51.910Z,70.69
2023-07-25T07:23:18.652Z,69.80
2023-07-25T07:25:46.122Z,69.42
2023-07-25T07:28:14.753Z,69.40
2023-07-25T07:30:41.615Z,69.19
2023-07-25T07:33:08.498Z,69.04
2023-07-25T07:35:35.345Z,68.69
2023-07-25T07:38:02.105Z,68.13
2023-07-25T07:40:29.975Z,67.74
2023-07-25T07:42:56.951Z,66.95
2023-07-25T07:45:25.141Z,66.09
2023-07-25T07:47:52.308Z,66.63
2023-07-25T07:50:20.421Z,65.69
2023-07-25T07:52:47.479Z,64.65
2023-07-25T07:55:14.921Z,63.79
2023-07-25T07:57:44.552Z,62.83
2023-07-25T08:00:14.681Z,62.39
2023-07-25T08:02:42.564Z,62.12
2023-07-25T08:05:10.280Z,61.97
2023-07-25T08:07:37.081Z,61.60
2023-07-25T08:10:04.462Z,60.60
2023-07-25T08:12:32.107Z,60.43
2023-07-25T08:14:58.882Z,60.01
2023-07-25T08:17:25.845Z,59.42
2023-07-25T08:19:52.748Z,59.22
2023-07-25T08:22:19.369Z,58.62
2023-07-25T08:24:46.771Z,58.44
2023-07-25T08:27:13.563Z,57.97
2023-07-25T08:29:41.925Z,57.83
2023-07-25T08:32:12.487Z,57.83
2023-07-25T08:34:40.731Z,58.14
2023-07-25T08:37:07.941Z,56.55
2023-07-25T08:39:35.261Z,56.97
2023-07-25T08:42:06.513Z,56.28
2023-07-25T08:44:36.474Z,55.81
2023-07-25T08:47:13.749Z,55.10
2023-07-25T08:49:42.589Z,54.86
2023-07-25T08:52:10.884Z,54.00
2023-07-25T08:54:38.684Z,53.83
2023-07-25T08:57:06.096Z,53.60
2023-07-25T08:59:33.244Z,54.31
2023-07-25T09:02:02.393Z,53.26
2023-07-25T09:04:29.484Z,52.05
2023-07-25T09:06:56.409Z,51.84
2023-07-25T09:09:24.300Z,51.00
2023-07-25T09:11:51.576Z,50.84
2023-07-25T09:14:19.140Z,50.98
2023-07-25T09:16:45.853Z,50.70
2023-07-25T09:19:13.042Z,50.14
2023-07-25T09:21:50.624Z,49.53
2023-07-25T09:24:17.356Z,49.75
2023-07-25T09:26:52.446Z,49.39
2023-07-25T09:29:21.887Z,49.16
2023-07-25T10:18:44.497Z,51.51
2023-07-25T10:29:50.796Z,49.94
2023-07-25T10:32:23.400Z,50.04
2023-07-25T11:08:42.914Z,49.31
2023-07-25T11:11:14.187Z,48.80
2023-07-25T11:13:46.168Z,48.09
2023-07-25T11:16:15.242Z,46.92
2023-07-25T11:18:52.554Z,46.00
2023-07-25T11:21:19.831Z,45.87
2023-07-25T11:23:46.597Z,46.04
2023-07-25T11:26:14.512Z,45.50
2023-07-25T11:28:42.419Z,45.50
2023-07-25T11:31:09.797Z,45.02
2023-07-25T11:33:43.080Z,45.04
2023-07-25T11:36:09.891Z,44.33
2023-07-25T11:38:37.286Z,43.78
2023-07-25T11:41:06.524Z,43.04
2023-07-25T11:43:33.644Z,42.89
2023-07-25T11:46:04.608Z,42.75
2023-07-25T11:48:32.705Z,42.44
2023-07-25T11:51:00.140Z,42.29
2023-07-25T11:53:29.194Z,41.99
2023-07-25T11:55:57.125Z,41.81
2023-07-25T11:58:24.208Z,41.78
2023-07-25T12:00:55.843Z,41.86
2023-07-25T12:03:24.906Z,41.96
2023-07-25T12:05:59.092Z,42.07
2023-07-25T12:08:42.586Z,42.77
2023-07-25T12:11:11.799Z,43.56
2023-07-25T12:13:56.958Z,43.57
2023-07-25T12:16:33.182Z,43.28
2023-07-25T12:19:03.039Z,43.35
2023-07-25T12:21:32.058Z,43.29
2023-07-25T12:24:05.728Z,43.00
2023-07-25T12:26:55.911Z,41.84
2023-07-25T12:29:31.487Z,40.97
2023-07-25T12:32:28.202Z,40.81
2023-07-25T12:35:08.080Z,40.89
2023-07-25T12:37:35.107Z,40.92
2023-07-25T12:40:05.449Z,41.38
2023-07-25T12:42:32.205Z,41.30
2023-07-25T12:45:02.447Z,40.67
2023-07-25T12:47:29.129Z,41.13
2023-07-25T12:49:55.997Z,40.80
2023-07-25T12:52:22.749Z,40.49
2023-07-25T12:54:49.420Z,40.21
2023-07-25T12:57:16.174Z,39.96
2023-07-25T12:59:43.469Z,40.55
2023-07-25T13:02:13.336Z,41.22
2023-07-25T13:04:40.128Z,41.38
2023-07-25T13:07:07.738Z,41.86
2023-07-25T13:09:37.531Z,41.06
2023-07-25T13:12:04.775Z,41.41
2023-07-25T13:14:31.616Z,41.08
2023-07-25T13:16:58.629Z,40.40
2023-07-25T13:19:25.393Z,40.46
2023-07-25T13:21:52.958Z,39.70
2023-07-25T13:24:19.740Z,39.41
2023-07-25T13:26:47.032Z,39.42
2023-07-25T13:29:15.317Z,39.93
2023-07-25T13:31:42.053Z,40.93
2023-07-25T13:34:09.419Z,41.63
2023-07-25T13:36:36.221Z,43.06
2023-07-25T13:39:02.935Z,42.99
2023-07-25T13:41:30.054Z,44.12
2023-07-25T13:43:57.305Z,45.09
2023-07-25T13:46:24.165Z,45.56
2023-07-25T13:48:52.470Z,46.58
2023-07-25T13:51:19.204Z,47.07
2023-07-25T13:53:45.890Z,47.43
2023-07-25T13:56:13.337Z,48.29
2023-07-25T13:58:42.650Z,48.76
2023-07-25T14:01:09.366Z,49.19
2023-07-25T14:03:36.124Z,49.43
2023-07-25T14:06:02.833Z,49.98
2023-07-25T14:08:29.593Z,48.08
2023-07-25T14:10:56.388Z,47.02
2023-07-25T14:13:23.855Z,45.82
2023-07-25T14:15:52.107Z,44.87
2023-07-25T14:18:19.550Z,44.44
2023-07-25T14:20:47.373Z,43.65
2023-07-25T14:23:14.153Z,43.43
2023-07-25T14:25:41.117Z,43.23
2023-07-25T14:28:07.924Z,43.01
2023-07-25T14:30:35.693Z,43.50
2023-07-25T14:33:02.726Z,43.65
2023-07-25T14:35:30.159Z,44.33
2023-07-25T14:37:58.617Z,44.64
2023-07-25T14:40:26.689Z,44.89
2023-07-25T14:42:54.157Z,45.45
2023-07-25T14:45:21.088Z,45.41
2023-07-25T14:47:47.943Z,45.23
2023-07-25T14:50:14.848Z,45.68
2023-07-25T14:52:42.021Z,45.67
2023-07-25T14:55:09.633Z,46.07
2023-07-25T14:57:36.372Z,45.65
2023-07-25T15:00:03.169Z,45.33
2023-07-25T15:02:30.058Z,44.93
2023-07-25T15:04:56.858Z,45.82
2023-07-25T15:07:23.441Z,46.40
2023-07-25T15:09:50.056Z,47.83
2023-07-25T15:12:16.995Z,48.83
2023-07-25T15:14:43.953Z,49.77
2023-07-25T15:17:19.565Z,49.66
2023-07-25T15:19:46.273Z,50.28
2023-07-25T15:22:13.025Z,51.37
2023-07-25T15:24:39.882Z,52.11
2023-07-25T15:27:07.255Z,52.63
2023-07-25T15:29:33.940Z,52.65
2023-07-25T15:32:03.200Z,52.15
2023-07-25T15:34:29.822Z,51.30
2023-07-25T15:36:57.219Z,50.08
2023-07-25T15:39:24.116Z,49.80
2023-07-25T15:41:50.733Z,48.81
2023-07-25T15:44:17.363Z,47.86
2023-07-25T15:46:44.548Z,48.01
2023-07-25T15:49:11.432Z,47.46
2023-07-25T15:51:38.088Z,47.23
2023-07-25T15:54:05.347Z,46.75
2023-07-25T15:56:32.040Z,46.56
2023-07-25T15:58:58.708Z,46.13
2023-07-25T16:01:26.724Z,46.62
2023-07-25T16:03:53.786Z,47.00
2023-07-25T16:06:20.612Z,47.69
2023-07-25T16:08:47.291Z,47.32
2023-07-25T16:11:16.897Z,47.69
2023-07-25T16:13:43.544Z,47.76
2023-07-25T16:16:11.131Z,47.05
2023-07-25T16:18:42.515Z,47.15
2023-07-25T16:21:10.033Z,47.54
2023-07-25T16:23:36.741Z,47.25
2023-07-25T16:26:04.625Z,47.28
2023-07-25T16:28:31.562Z,47.95
2023-07-25T16:31:16.898Z,48.29
2023-07-25T16:33:45.024Z,48.60
2023-07-25T16:36:11.916Z,49.08
2023-07-25T16:38:38.813Z,50.13
2023-07-25T16:41:05.467Z,51.06
2023-07-25T16:43:33.117Z,51.76
2023-07-25T16:45:59.766Z,52.42
2023-07-25T16:48:27.284Z,53.17
2023-07-25T16:50:54.619Z,53.34
2023-07-25T16:53:21.226Z,53.89
2023-07-25T16:55:47.796Z,53.86
2023-07-25T16:58:14.602Z,54.10
2023-07-25T17:00:41.257Z,54.22
2023-07-25T17:03:08.916Z,54.42
2023-07-25T17:05:36.321Z,54.60
2023-07-25T17:08:04.389Z,54.51
2023-07-25T17:10:31.639Z,54.90
2023-07-25T17:12:58.902Z,55.01
2023-07-25T17:15:25.658Z,55.49
2023-07-25T17:17:52.365Z,55.94
2023-07-25T17:20:22.485Z,56.43
2023-07-25T17:22:49.208Z,56.35
2023-07-25T17:25:16.122Z,56.86
2023-07-25T17:27:43.696Z,56.85
2023-07-25T17:30:14.292Z,56.87
2023-07-25T17:32:41.068Z,56.75
2023-07-25T17:35:10.929Z,56.97
2023-07-25T17:37:41.583Z,56.89
2023-07-25T17:40:11.973Z,56.92
2023-07-25T17:42:38.809Z,56.49
2023-07-25T17:45:05.871Z,56.68
2023-07-25T17:47:33.619Z,56.38
2023-07-25T17:50:00.691Z,56.36
2023-07-25T17:52:27.700Z,56.81
2023-07-25T17:54:55.277Z,56.89
2023-07-25T17:57:22.077Z,56.70
2023-07-25T17:59:48.723Z,56.77
2023-07-25T18:02:16.053Z,56.84
2023-07-25T18:04:44.340Z,57.19
2023-07-25T18:07:11.463Z,57.55
2023-07-25T18:09:38.257Z,57.75
2023-07-25T18:12:05.774Z,58.78
2023-07-25T18:14:32.424Z,59.06
2023-07-25T18:16:59.893Z,59.25
2023-07-25T18:19:26.594Z,59.26
2023-07-25T18:21:53.339Z,59.55
2023-07-25T18:24:20.384Z,60.31
2023-07-25T18:26:47.437Z,60.37
2023-07-25T18:29:14.055Z,60.64
2023-07-25T18:31:40.814Z,60.75
2023-07-25T18:34:07.602Z,61.11
2023-07-25T18:36:34.204Z,61.25
2023-07-25T18:39:02.053Z,61.58
2023-07-25T18:41:28.905Z,61.99
2023-07-25T18:43:55.540Z,62.13
2023-07-25T18:46:22.475Z,62.15
2023-07-25T18:48:49.867Z,62.36
2023-07-25T18:51:16.777Z,62.57
2023-07-25T18:53:44.287Z,62.84
2023-07-25T18:56:10.922Z,63.12
2023-07-25T18:58:42.740Z,63.49
2023-07-25T19:01:09.530Z,63.48
2023-07-25T19:03:36.272Z,63.92
2023-07-25T19:06:03.034Z,64.08
2023-07-25T19:08:30.582Z,64.08
2023-07-25T19:10:57.417Z,64.39
2023-07-25T19:13:24.094Z,64.49
2023-07-25T19:15:50.998Z,64.80
2023-07-25T19:18:18.737Z,64.84
2023-07-25T19:20:45.545Z,64.91
2023-07-25T19:23:25.024Z,65.24
2023-07-25T19:26:01.188Z,65.30
2023-07-25T19:28:29.045Z,65.44
2023-07-25T19:30:57.561Z,65.61
2023-07-25T19:33:25.715Z,65.81
2023-07-25T19:35:55.812Z,65.93
2023-07-25T19:38:27.800Z,65.87
2023-07-25T19:40:55.074Z,66.32
2023-07-25T19:43:22.312Z,66.28
2023-07-25T19:45:49.054Z,66.21
2023-07-25T19:48:17.743Z,66.38
2023-07-25T19:50:46.946Z,66.65
2023-07-25T19:53:14.871Z,66.70
2023-07-25T19:55:42.098Z,66.79
2023-07-25T19:58:08.767Z,66.92
2023-07-25T20:00:37.292Z,66.88
2023-07-25T20:03:04.280Z,66.82
2023-07-25T20:05:31.300Z,66.76
2023-07-25T20:07:58.027Z,66.79
2023-07-25T20:10:24.707Z,66.98
2023-07-25T20:12:52.025Z,66.88
2023-07-25T20:15:19.882Z,67.32
2023-07-25T20:17:48.243Z,67.53
2023-07-25T20:20:16.000Z,67.52
2023-07-25T20:22:42.707Z,68.09
2023-07-25T20:25:11.245Z,68.21
2023-07-25T20:27:38.824Z,68.56
2023-07-25T20:30:06.470Z,68.61
2023-07-25T20:32:34.133Z,68.73
2023-07-25T20:35:00.914Z,68.93
2023-07-25T20:37:28.963Z,69.13
2023-07-25T20:39:56.476Z,69.08
2023-07-25T20:42:23.291Z,69.42
2023-07-25T20:44:50.065Z,69.58
2023-07-25T20:47:17.715Z,69.48
2023-07-25T20:49:44.764Z,69.67
2023-07-25T20:52:11.609Z,69.68
2023-07-25T20:54:38.358Z,69.82
2023-07-25T20:57:05.666Z,69.57
2023-07-25T20:59:32.305Z,69.85
2023-07-25T21:01:59.067Z,69.82
2023-07-25T21:04:28.591Z,69.95
2023-07-25T21:06:55.707Z,70.17
2023-07-25T21:09:22.994Z,70.48
2023-07-25T21:11:49.658Z,70.45
2023-07-25T21:14:16.329Z,70.91
2023-07-25T21:16:43.599Z,70.94
2023-07-25T21:19:10.969Z,71.22
2023-07-25T21:21:37.702Z,70.80
2023-07-25T21:24:04.719Z,71.00
2023-07-25T21:26:32.175Z,70.99
2023-07-25T21:28:59.190Z,70.77
2023-07-25T21:31:26.869Z,70.92
2023-07-25T21:33:53.726Z,70.88
2023-07-25T21:36:20.750Z,70.72
2023-07-25T21:38:47.474Z,70.75
2023-07-25T21:41:15.696Z,70.90
2023-07-25T21:43:43.387Z,70.68
2023-07-25T21:46:10.590Z,70.85
2023-07-25T21:48:41.185Z,70.90
2023-07-25T21:51:09.416Z,70.99
2023-07-25T21:53:36.061Z,71.29
2023-07-25T21:56:03.006Z,71.44
2023-07-25T21:58:29.747Z,71.68
2023-07-25T22:01:00.446Z,71.43
2023-07-25T22:03:31.220Z,71.63
2023-07-25T22:06:01.052Z,71.71
2023-07-25T22:08:28.149Z,71.77
2023-07-25T22:10:56.215Z,71.82
2023-07-25T22:13:23.993Z,71.96
2023-07-25T22:15:50.694Z,72.13
2023-07-25T22:18:17.555Z,72.36
2023-07-25T22:20:51.865Z,72.28
2023-07-25T22:23:20.229Z,72.63
2023-07-25T22:25:47.060Z,72.63
2023-07-25T22:28:13.888Z,72.56
2023-07-25T22:30:41.346Z,72.70
2023-07-25T22:33:08.713Z,72.51
2023-07-25T22:35:35.698Z,72.76
2023-07-25T22:38:04.400Z,73.01
2023-07-25T22:40:31.879Z,73.08
2023-07-25T22:42:58.933Z,72.92
2023-07-25T22:45:29.479Z,73.10
2023-07-25T22:47:56.555Z,72.94
2023-07-25T22:50:23.706Z,72.98
2023-07-25T22:52:50.726Z,73.04
2023-07-25T22:55:19.901Z,73.08
2023-07-25T22:57:46.659Z,73.05
2023-07-25T23:00:14.091Z,73.21
2023-07-25T23:02:41.445Z,73.35
2023-07-25T23:05:08.762Z,73.49
2023-07-25T23:07:35.645Z,73.46
2023-07-25T23:10:03.058Z,73.38
2023-07-25T23:12:29.831Z,73.16
2023-07-25T23:14:56.685Z,73.37
2023-07-25T23:17:24.312Z,73.11
2023-07-25T23:19:51.198Z,73.42
2023-07-25T23:22:18.034Z,73.59
2023-07-25T23:24:45.743Z,73.37
2023-07-25T23:27:12.470Z,73.62
2023-07-25T23:29:39.177Z,73.60
2023-07-25T23:32:06.410Z,73.80
2023-07-25T23:34:45.234Z,73.85
2023-07-25T23:37:12.022Z,73.76
2023-07-25T23:39:39.197Z,73.76
2023-07-25T23:42:06.256Z,73.92
2023-07-25T23:44:33.842Z,74.12
2023-07-25T23:47:00.632Z,74.08
2023-07-25T23:49:28.573Z,74.53
2023-07-25T23:51:55.776Z,74.84
2023-07-25T23:54:22.518Z,74.89
2023-07-25T23:56:49.778Z,75.07
2023-07-25T23:59:16.567Z,75.24
